• Join FlightAware (Why Join?)
  • Login
  • US Flag 
10:10PM EDT


 

Airport Tracker/Info


-or-


 

Live Flight TrackerFlight Track Log ✈ AWE3794 ✈ 19-Apr-2013 ✈ KCLE - KPHL

Flight Track Log - Related Links

Times and Time Zones

All times are in EDT time to prevent confusion due to time zone crossing. See the AWE3794 flight status page for this flight to view local times or setup timezone preferences in your user account.

Time Position Orientation Groundspeed Altitude Reporting Facility
EDT Latitude Longitude Course Direction KTS MPH feet Rate Location/Type
09:52AM 41.3878 -81.8811 114° Southeast 174 200 2,100  Level Cleveland Center
09:53AM 41.3231 -81.8717 174° South 213 245 5,300 2,460 Climbing Cleveland Center
09:54AM 41.2908 -81.7797 115° Southeast 225 259 7,500 2,100 Climbing Cleveland Center
09:55AM 41.1830 -81.3827 124° Southeast  Level FlightAware Approximate
09:55AM 41.2625 -81.6853 112° Southeast 245 282 9,500  Level Cleveland Center
09:56AM 41.1270 -81.2674 118° Southeast  Level FlightAware Approximate
09:56AM 41.2322 -81.5908 113° Southeast 290 334 11,300  Level Cleveland Center
09:57AM 41.0814 -81.1443 114° Southeast  Level FlightAware Approximate
09:57AM 41.1956 -81.4772 113° Southeast 319 367 13,200  Level Cleveland Center
09:58AM 41.1547 -81.3497 113° Southeast 332 382 15,100 1,680 Climbing Cleveland Center
09:59AM 41.1181 -81.2336 113° Southeast 340 391 16,600 1,320 Climbing Cleveland Center
10:00AM 41.0811 -81.1092 111° Southeast 345 397 17,800 1,500 Climbing Cleveland Center
10:01AM 41.0442 -80.9822 111° Southeast 364 419 19,600 1,620 Climbing Cleveland Center
10:02AM 41.0092 -80.8556 110° East 369 425 21,100 1,260 Climbing Cleveland Center
10:03AM 40.9717 -80.7289 111° Southeast 376 433 22,200 960 Climbing Cleveland Center
10:04AM 40.9364 -80.5997 110° East 376 433 23,100 900 Climbing Cleveland Center
10:05AM 40.8989 -80.4706 111° Southeast 371 427 24,100 840 Climbing Cleveland Center
10:06AM 40.8653 -80.3553 111° Southeast 371 427 24,800 420 Climbing Cleveland Center
10:07AM 40.8275 -80.2236 111° Southeast 376 433 25,000 60 Climbing Cleveland Center
10:08AM 40.7811 -80.0950 115° Southeast 376 433 25,000  Level Cleveland Center
10:09AM 40.7347 -79.9611 115° Southeast 382 440 25,000  Level Cleveland Center
10:10AM 40.6839 -79.8275 117° Southeast 387 445 25,000  Level Cleveland Center
10:11AM 40.6350 -79.6911 115° Southeast 400 460 25,000  Level Cleveland Center
10:12AM 40.5836 -79.5525 116° Southeast 410 472 25,000  Level Cleveland Center
10:13AM 40.5322 -79.4139 116° Southeast 410 472 25,000  Level Cleveland Center
10:14AM 40.4786 -79.2756 117° Southeast 415 478 25,000  Level Cleveland Center
10:15AM 40.4269 -79.1347 116° Southeast 420 483 25,000  Level Cleveland Center
10:16AM 40.3772 -78.9942 115° Southeast 420 483 25,000  Level Cleveland Center
10:17AM 40.3231 -78.8567 117° Southeast 425 489 25,000  Level Cleveland Center
10:18AM 40.2586 -78.7331 124° Southeast 419 482 25,000  Level Cleveland Center
10:19AM 40.1856 -78.6047 127° Southeast 408 470 25,000  Level Cleveland Center
10:20AM 40.1558 -78.4697 106° East 383 441 25,000  Level Cleveland Center
10:22AM 40.2383 -78.2003 68° East 388 447 25,000  Level New York Center
10:23AM 40.2850 -78.0528 67° East 412 474 25,000  Level New York Center
10:24AM 40.3108 -77.9031 77° East 421 484 25,000  Level New York Center
10:25AM 40.3117 -77.7478 90° East 421 484 25,000 -660 Level New York Center
10:26AM 40.3103 -77.5925 91° East 421 484 23,800 -1,380 Descending New York Center
10:27AM 40.3086 -77.4400 91° East 421 484 22,300 -1,500 Descending New York Center
10:28AM 40.3044 -77.2925 92° East 421 484 20,800 -1,440 Descending New York Center
10:29AM 40.3008 -77.1642 92° East 405 466 19,400 -1,560 Descending New York Center
10:30AM 40.2797 -77.0153 100° East 384 442 17,700 -1,620 Descending New York Center
10:31AM 40.2611 -76.8939 101° East 379 436 16,200 -1,620 Descending New York Center
10:32AM 40.2394 -76.7478 101° East 374 430 14,600 -1,620 Descending New York Center
10:33AM 40.2189 -76.6156 101° East 374 430 13,100 -1,500 Descending New York Center
10:34AM 40.2000 -76.4889 101° East 364 419 11,600 -1,440 Descending New York Center
10:35AM 40.1828 -76.3733 101° East 359 413 10,300 -1,020 Descending New York Center
10:36AM 40.1683 -76.2908 103° East 350 403 10,100 -240 Descending FAA TRACON SMA TRACON (SMA)
10:36AM 40.1628 -76.2544 101° East 341 392 10,100  Level FAA TRACON SMA TRACON (SMA)
10:36AM 40.1558 -76.2128 102° East 333 383 10,100  Level FAA TRACON SMA TRACON (SMA)
10:37AM 40.1506 -76.1764 101° East 328 377 10,100 -180 Level FAA TRACON SMA TRACON (SMA)
10:37AM 40.1453 -76.1400 101° East 322 371 10,000 -480 Descending FAA TRACON SMA TRACON (SMA)
10:37AM 40.1394 -76.1056 102° East 317 365 9,800 -780 Descending FAA TRACON SMA TRACON (SMA)
10:38AM 40.1339 -76.0644 100° East 312 359 9,500 -900 Descending FAA TRACON SMA TRACON (SMA)
10:38AM 40.1278 -76.0300 103° East 307 353 9,200 -780 Descending FAA TRACON SMA TRACON (SMA)
10:38AM 40.1219 -75.9975 103° East 303 349 9,000 -600 Descending FAA TRACON SMA TRACON (SMA)
10:39AM 40.1158 -75.9586 102° East 300 345 8,800 -780 Descending FAA TRACON SMA TRACON (SMA)
10:39AM 40.1106 -75.9239 101° East 299 344 8,500 -1,080 Descending FAA TRACON SMA TRACON (SMA)
10:39AM 40.1056 -75.8917 101° East 297 342 8,100 -1,200 Descending FAA TRACON SMA TRACON (SMA)
10:40AM 40.1006 -75.8600 102° East 292 336 7,700 -1,500 Descending FAA TRACON SMA TRACON (SMA)
10:40AM 40.0947 -75.8222 101° East 287 330 7,100 -1,680 Descending FAA TRACON SMA TRACON (SMA)
10:40AM 40.0889 -75.7914 104° East 285 328 6,600 -1,500 Descending FAA TRACON SMA TRACON (SMA)
10:41AM 40.0844 -75.7567 99° East 283 326 6,100 -1,500 Descending FAA TRACON SMA TRACON (SMA)
10:41AM 40.0853 -75.7194 88° East 305 351 5,600 -1,500 Descending FAA TRACON SMA TRACON (SMA)
10:41AM 40.0928 -75.6878 73° East 295 339 5,100 -960 Descending FAA TRACON SMA TRACON (SMA)
10:42AM 40.1006 -75.6564 72° East 287 330 5,000 -180 Descending FAA TRACON SMA TRACON (SMA)
10:42AM 40.1103 -75.6206 70° East 269 310 5,000  Level FAA TRACON SMA TRACON (SMA)
10:42AM 40.1175 -75.5958 69° East 250 288 5,000 -480 Level FAA TRACON SMA TRACON (SMA)
10:43AM 40.1242 -75.5711 71° East 222 255 4,700 -1,380 Descending FAA TRACON SMA TRACON (SMA)
10:43AM 40.1386 -75.5456 54° Northeast 229 264 4,100 -1,080 Descending FAA TRACON SMA TRACON (SMA)
10:43AM 40.1514 -75.5294 44° Northeast 201 231 4,000 -180 Descending FAA TRACON SMA TRACON (SMA)
10:44AM 40.1644 -75.5122 45° Northeast 211 243 4,000 120 Level FAA TRACON SMA TRACON (SMA)
10:44AM 40.1811 -75.4903 45° Northeast 217 250 4,100  Climbing FAA TRACON SMA TRACON (SMA)
10:44AM 40.1947 -75.4731 44° Northeast 223 257 4,000 -180 Descending FAA TRACON SMA TRACON (SMA)
10:45AM 40.2089 -75.4542 46° Northeast 227 261 4,000  Level FAA TRACON SMA TRACON (SMA)
10:45AM 40.2108 -75.4267 85° East 188 216 4,000  Level FAA TRACON SMA TRACON (SMA)
10:45AM 40.2014 -75.4125 131° Southeast 165 190 4,000  Level FAA TRACON SMA TRACON (SMA)
10:46AM 40.1917 -75.4003 136° Southeast 163 188 4,000  Level FAA TRACON SMA TRACON (SMA)
10:46AM 40.1783 -75.3850 139° Southeast 161 185 4,000  Level FAA TRACON SMA TRACON (SMA)
10:46AM 40.1675 -75.3742 143° Southeast 160 184 4,000  Level FAA TRACON SMA TRACON (SMA)
10:47AM 40.1533 -75.3633 150° Southeast 151 174 4,000  Level FAA TRACON SMA TRACON (SMA)
10:47AM 40.1444 -75.3583 157° South 155 178 4,000  Level FAA TRACON SMA TRACON (SMA)
10:47AM 40.1292 -75.3528 164° South 146 168 4,000  Level FAA TRACON SMA TRACON (SMA)
10:48AM 40.1172 -75.3483 164° South 145 167 4,000  Level FAA TRACON SMA TRACON (SMA)
10:48AM 40.1056 -75.3444 166° South 158 182 4,000 -180 Level FAA TRACON SMA TRACON (SMA)
10:48AM 40.0894 -75.3403 169° South 149 171 3,900 -780 Descending FAA TRACON SMA TRACON (SMA)
10:49AM 40.0775 -75.3339 158° South 151 174 3,500 -900 Descending FAA TRACON SMA TRACON (SMA)
10:49AM 40.0664 -75.3272 155° Southeast 153 176 3,300 -780 Descending FAA TRACON SMA TRACON (SMA)
10:49AM 40.0500 -75.3183 157° South 154 177 3,000 -480 Descending FAA TRACON SMA TRACON (SMA)
10:50AM 40.0389 -75.3106 152° Southeast 150 173 3,000 -180 Level FAA TRACON SMA TRACON (SMA)
10:50AM 40.0278 -75.3044 157° South 146 168 2,900 -480 Descending FAA TRACON SMA TRACON (SMA)
10:50AM 40.0125 -75.2981 162° South 143 165 2,700 -600 Descending FAA TRACON SMA TRACON (SMA)
10:51AM 40.0006 -75.2922 159° South 146 168 2,500 -900 Descending FAA TRACON SMA TRACON (SMA)
10:51AM 39.9864 -75.2850 159° South 151 174 2,100 -900 Descending FAA TRACON SMA TRACON (SMA)
10:51AM 39.9739 -75.2792 160° South 149 171 1,900 -600 Descending FAA TRACON SMA TRACON (SMA)